createdAt,value
2019-05-05T00:00:01.062Z,965.02
2019-05-05T00:05:01.042Z,965.07
2019-05-05T00:10:01.063Z,965.16
2019-05-05T00:15:01.081Z,965.11
2019-05-05T00:20:01.058Z,965.13
2019-05-05T00:25:01.070Z,965.09
2019-05-05T00:30:01.075Z,965.10
2019-05-05T00:35:01.476Z,965.07
2019-05-05T00:40:01.041Z,965.09
2019-05-05T00:45:01.067Z,965.03
2019-05-05T00:50:01.392Z,964.97
2019-05-05T00:55:01.419Z,964.98
2019-05-05T01:00:01.082Z,965.01
2019-05-05T01:05:01.442Z,965.01
2019-05-05T01:10:01.063Z,965.01
2019-05-05T01:15:01.084Z,965.07
2019-05-05T01:20:04.100Z,965.05
2019-05-05T01:25:01.409Z,965.14
2019-05-05T01:30:01.076Z,965.16
2019-05-05T01:35:01.439Z,965.20
2019-05-05T01:40:01.073Z,965.20
2019-05-05T01:45:01.059Z,965.25
2019-05-05T01:50:08.209Z,965.22
2019-05-05T01:55:01.060Z,965.19
2019-05-05T02:00:01.095Z,965.17
2019-05-05T02:05:01.054Z,965.14
2019-05-05T02:10:01.387Z,965.22
2019-05-05T02:15:01.482Z,965.30
2019-05-05T02:20:01.532Z,965.19
2019-05-05T02:25:01.091Z,965.17
2019-05-05T02:30:01.060Z,965.30
2019-05-05T02:35:01.055Z,965.29
2019-05-05T02:40:06.228Z,965.25
2019-05-05T02:45:01.526Z,965.30
2019-05-05T02:50:01.052Z,965.36
2019-05-05T02:55:01.513Z,965.37
2019-05-05T03:00:01.067Z,965.45
2019-05-05T03:05:01.368Z,965.54
2019-05-05T03:10:01.063Z,965.60
2019-05-05T03:15:01.429Z,965.68
2019-05-05T03:20:01.051Z,965.68
2019-05-05T03:25:01.028Z,965.81
2019-05-05T03:30:01.048Z,965.87
2019-05-05T03:35:01.058Z,965.91
2019-05-05T03:40:01.051Z,965.99
2019-05-05T03:45:01.092Z,966.03
2019-05-05T03:50:01.078Z,966.16
2019-05-05T03:55:01.053Z,966.28
2019-05-05T04:00:01.082Z,966.21
2019-05-05T04:50:01.074Z,966.93
2019-05-05T04:55:01.034Z,966.98
2019-05-05T05:00:01.112Z,967.00
2019-05-05T05:05:01.060Z,967.23
2019-05-05T05:10:01.101Z,967.19
2019-05-05T05:15:01.194Z,967.26
2019-05-05T05:20:01.058Z,967.37
2019-05-05T05:25:01.046Z,967.34
2019-05-05T05:30:01.046Z,967.43
2019-05-05T05:35:01.051Z,967.39
2019-05-05T05:40:01.073Z,967.55
2019-05-05T05:45:01.086Z,967.64
2019-05-05T05:50:01.057Z,967.67
2019-05-05T05:55:01.049Z,967.75
2019-05-05T06:00:01.081Z,967.80
2019-05-05T06:05:01.500Z,967.84
2019-05-05T06:10:01.043Z,968.02
2019-05-05T06:15:03.699Z,968.00
2019-05-05T06:20:01.154Z,968.01
2019-05-05T06:25:01.069Z,968.01
2019-05-05T06:30:01.485Z,968.09
2019-05-05T06:35:01.065Z,968.20
2019-05-05T06:40:01.058Z,968.26
2019-05-05T06:45:01.497Z,968.22
2019-05-05T06:50:06.473Z,968.35
2019-05-05T06:55:03.638Z,968.26
2019-05-05T07:00:03.494Z,968.38
2019-05-05T07:05:01.202Z,968.40
2019-05-05T07:10:01.100Z,968.43
2019-05-05T07:15:01.430Z,968.41
2019-05-05T07:20:01.070Z,968.52
2019-05-05T07:25:01.067Z,968.49
2019-05-05T07:30:01.228Z,968.56
2019-05-05T07:35:01.061Z,968.63
2019-05-05T07:40:01.057Z,968.62
2019-05-05T07:45:01.045Z,968.60
2019-05-05T07:50:01.046Z,968.67
2019-05-05T07:55:01.056Z,968.71
2019-05-05T08:00:01.132Z,968.70
2019-05-05T08:05:01.548Z,968.75
2019-05-05T08:10:01.058Z,968.80
2019-05-05T08:15:01.085Z,968.78
2019-05-05T08:20:01.077Z,968.76
2019-05-05T08:25:01.052Z,969.01
2019-05-05T08:30:03.095Z,969.13
2019-05-05T08:35:01.237Z,969.07
2019-05-05T08:40:01.369Z,969.12
2019-05-05T08:45:01.085Z,968.94
2019-05-05T08:50:01.103Z,969.04
2019-05-05T08:55:01.103Z,969.01
2019-05-05T09:00:01.110Z,969.14
2019-05-05T09:05:01.079Z,969.19
2019-05-05T09:10:03.732Z,969.24
2019-05-05T09:15:01.416Z,969.25
2019-05-05T09:20:01.074Z,969.08
2019-05-05T09:25:04.375Z,969.19
2019-05-05T09:30:01.093Z,969.22
2019-05-05T09:35:01.086Z,969.25
2019-05-05T09:40:01.580Z,969.18
2019-05-05T09:45:01.590Z,969.16
2019-05-05T09:50:01.071Z,969.26
2019-05-05T09:55:01.100Z,969.29
2019-05-05T10:00:01.073Z,969.17
2019-05-05T10:05:01.061Z,969.24
2019-05-05T10:10:01.059Z,969.28
2019-05-05T10:15:09.870Z,969.36
2019-05-05T10:20:01.557Z,969.48
2019-05-05T10:25:01.119Z,969.37
2019-05-05T10:30:01.115Z,969.37
2019-05-05T10:35:04.188Z,969.26
2019-05-05T10:40:03.513Z,969.26
2019-05-05T10:45:01.514Z,969.20
2019-05-05T10:50:01.680Z,969.27
2019-05-05T10:55:01.439Z,969.30
2019-05-05T11:00:10.127Z,969.41
2019-05-05T11:05:01.073Z,969.53
2019-05-05T11:10:01.094Z,969.47
2019-05-05T11:15:03.931Z,969.50
2019-05-05T11:20:01.132Z,969.50
2019-05-05T11:25:01.603Z,969.63
2019-05-05T11:30:01.142Z,969.57
2019-05-05T11:35:01.754Z,969.62
2019-05-05T11:40:01.525Z,969.68
2019-05-05T11:45:01.483Z,969.63
2019-05-05T11:50:01.136Z,969.61
2019-05-05T11:55:09.822Z,969.69
2019-05-05T12:00:01.180Z,969.75
2019-05-05T12:05:01.089Z,969.80
2019-05-05T12:10:01.423Z,969.72
2019-05-05T12:15:01.101Z,969.75
2019-05-05T12:20:01.217Z,969.83
2019-05-05T12:25:01.121Z,969.76
2019-05-05T12:30:01.107Z,969.82
2019-05-05T12:35:01.114Z,969.77
2019-05-05T12:40:01.075Z,969.87
2019-05-05T12:45:01.097Z,969.83
2019-05-05T12:50:01.037Z,969.77
2019-05-05T12:55:04.333Z,969.76
2019-05-05T13:00:01.081Z,969.66
2019-05-05T13:05:01.192Z,969.79
2019-05-05T13:10:01.159Z,969.69
2019-05-05T13:15:01.045Z,969.76
2019-05-05T13:20:01.134Z,969.55
2019-05-05T13:25:01.056Z,969.78
2019-05-05T13:30:01.138Z,969.62
2019-05-05T13:35:01.129Z,969.68
2019-05-05T13:40:01.089Z,969.69
2019-05-05T13:45:01.101Z,969.76
2019-05-05T13:50:01.102Z,969.76
2019-05-05T13:55:01.068Z,969.86
2019-05-05T14:00:01.114Z,969.84
2019-05-05T14:05:01.072Z,969.95
2019-05-05T14:10:01.079Z,969.88
2019-05-05T14:15:01.060Z,969.80
2019-05-05T14:20:06.728Z,969.82
2019-05-05T14:25:01.040Z,969.77
2019-05-05T14:30:01.113Z,969.84
2019-05-05T14:35:01.274Z,969.90
2019-05-05T14:40:01.041Z,970.02
2019-05-05T14:45:01.336Z,970.08
2019-05-05T14:50:01.271Z,970.04
2019-05-05T14:55:01.088Z,970.08
2019-05-05T15:00:01.297Z,970.20
2019-05-05T15:05:01.043Z,970.19
2019-05-05T15:10:01.827Z,970.12
2019-05-05T15:15:01.065Z,970.24
2019-05-05T15:20:01.326Z,970.31
2019-05-05T15:25:01.061Z,970.32
2019-05-05T15:30:01.074Z,970.30
2019-05-05T15:35:01.064Z,970.24
2019-05-05T15:40:01.084Z,970.24
2019-05-05T15:45:01.126Z,970.27
2019-05-05T15:50:01.082Z,970.36
2019-05-05T15:55:01.071Z,970.43
2019-05-05T16:00:01.060Z,970.39
2019-05-05T16:05:01.035Z,970.31
2019-05-05T16:10:01.094Z,970.42
2019-05-05T16:15:01.066Z,970.37
2019-05-05T16:20:01.069Z,970.35
2019-05-05T16:25:01.061Z,970.39
2019-05-05T16:30:01.432Z,970.35
2019-05-05T16:35:03.608Z,970.51
2019-05-05T16:40:01.097Z,970.58
2019-05-05T16:45:01.357Z,970.72
2019-05-05T16:50:01.064Z,970.76
2019-05-05T16:55:01.090Z,970.63
2019-05-05T17:00:01.165Z,970.72
2019-05-05T17:05:01.471Z,970.63
2019-05-05T17:10:01.045Z,970.80
2019-05-05T17:15:01.757Z,970.74
2019-05-05T17:20:01.031Z,970.73
2019-05-05T17:25:01.089Z,970.69
2019-05-05T17:30:01.051Z,970.74
